createdAt,value
2022-11-29T00:01:24.645Z,101632.47
2022-11-29T00:03:51.822Z,101643.81
2022-11-29T00:06:23.497Z,101632.69
2022-11-29T00:08:50.312Z,101636.25
2022-11-29T00:11:38.986Z,101644.03
2022-11-29T00:14:11.239Z,101647.50
2022-11-29T00:16:40.662Z,101637.09
2022-11-29T00:19:08.094Z,101638.78
2022-11-29T00:21:34.456Z,101639.63
2022-11-29T00:24:00.763Z,101640.47
2022-11-29T00:26:27.226Z,101642.25
2022-11-29T00:28:53.817Z,101644.88
2022-11-29T00:31:22.975Z,101648.47
2022-11-29T00:33:50.380Z,101644.78
2022-11-29T00:36:17.493Z,101647.28
2022-11-29T00:38:44.036Z,101653.44
2022-11-29T00:41:11.349Z,101647.28
2022-11-29T00:43:38.442Z,101656.91
2022-11-29T00:46:05.564Z,101650.78
2022-11-29T00:48:32.436Z,101649.94
2022-11-29T00:50:58.771Z,101641.31
2022-11-29T00:53:25.156Z,101647.22
2022-11-29T00:55:52.641Z,101646.28
2022-11-29T00:58:20.677Z,101642.81
2022-11-29T01:00:47.680Z,101648.06
2022-11-29T01:03:15.614Z,101646.38
2022-11-29T01:05:42.932Z,101645.31
2022-11-29T01:08:10.130Z,101645.22
2022-11-29T01:10:36.783Z,101653.09
2022-11-29T01:13:03.204Z,101653.94
2022-11-29T01:15:29.778Z,101661.00
2022-11-29T01:17:56.222Z,101661.94
2022-11-29T01:20:22.813Z,101673.41
2022-11-29T01:22:49.191Z,101661.94
2022-11-29T01:25:15.589Z,101667.00
2022-11-29T01:27:41.907Z,101667.00
2022-11-29T01:30:09.852Z,101667.00
2022-11-29T01:32:37.091Z,101672.34
2022-11-29T01:35:04.853Z,101667.94
2022-11-29T01:37:32.294Z,101678.66
2022-11-29T01:39:58.729Z,101671.63
2022-11-29T01:42:25.357Z,101678.56
2022-11-29T01:45:06.234Z,101684.66
2022-11-29T01:47:33.734Z,101686.53
2022-11-29T01:50:00.538Z,101684.03
2022-11-29T01:52:31.796Z,101681.47
2022-11-29T01:55:03.884Z,101692.31
2022-11-29T01:57:32.899Z,101695.03
2022-11-29T02:00:06.702Z,101691.63
2022-11-29T02:02:42.824Z,101698.06
2022-11-29T02:05:10.145Z,101693.81
2022-11-29T02:07:37.641Z,101696.34
2022-11-29T02:10:06.655Z,101698.13
2022-11-29T02:12:51.582Z,101699.06
2022-11-29T02:15:28.781Z,101691.50
2022-11-29T02:18:04.433Z,101696.75
2022-11-29T02:20:51.974Z,101687.94
2022-11-29T02:23:27.456Z,101694.88
2022-11-29T02:26:02.346Z,101696.75
2022-11-29T02:28:57.954Z,101694.13
2022-11-29T02:31:49.161Z,101695.72
2022-11-29T02:34:52.232Z,101700.13
2022-11-29T02:37:43.410Z,101698.13
2022-11-29T02:40:52.453Z,101706.22
2022-11-29T02:43:59.417Z,101702.84
2022-11-29T02:46:56.667Z,101706.34
2022-11-29T02:49:54.095Z,101707.91
2022-11-29T02:52:44.281Z,101715.91
2022-11-29T02:55:22.791Z,101709.13
2022-11-29T02:58:04.486Z,101721.31
2022-11-29T03:00:35.588Z,101711.03
2022-11-29T03:03:26.461Z,101726.06
2022-11-29T03:06:28.365Z,101729.81
2022-11-29T03:09:33.073Z,101741.25
2022-11-29T03:12:37.131Z,101736.75
2022-11-29T03:15:03.404Z,101728.13
2022-11-29T03:17:38.967Z,101732.44
2022-11-29T03:20:29.055Z,101733.16
2022-11-29T03:23:18.683Z,101738.41
2022-11-29T03:26:08.309Z,101737.69
2022-11-29T03:28:44.122Z,101735.78
2022-11-29T03:31:20.579Z,101741.25
2022-11-29T03:34:03.165Z,101743.16
2022-11-29T03:36:48.105Z,101756.28
2022-11-29T03:39:37.750Z,101744.16
2022-11-29T03:42:10.226Z,101755.72
2022-11-29T03:44:46.706Z,101756.66
2022-11-29T03:47:16.989Z,101760.31
2022-11-29T03:49:54.569Z,101757.78
2022-11-29T03:52:42.710Z,101761.97
2022-11-29T03:55:09.078Z,101763.03
2022-11-29T03:57:50.052Z,101772.59
2022-11-29T04:00:18.229Z,101778.13
2022-11-29T04:03:22.196Z,101772.03
2022-11-29T04:06:14.525Z,101771.50
2022-11-29T04:09:22.386Z,101773.44
2022-11-29T04:12:26.613Z,101788.56
2022-11-29T04:15:16.300Z,101787.69
2022-11-29T04:18:01.717Z,101782.44
2022-11-29T04:21:01.515Z,101779.91
2022-11-29T04:23:43.038Z,101789.66
2022-11-29T04:26:35.213Z,101796.81
2022-11-29T04:29:25.923Z,101792.47
2022-11-29T04:32:10.342Z,101800.44
2022-11-29T04:35:13.672Z,101794.34
2022-11-29T04:37:55.274Z,101795.19
2022-11-29T04:40:27.528Z,101792.47
2022-11-29T04:43:06.150Z,101796.72
2022-11-29T04:45:35.506Z,101806.38
2022-11-29T04:48:24.618Z,101804.69
2022-11-29T04:51:09.888Z,101799.44
2022-11-29T04:53:47.852Z,101805.59
2022-11-29T04:56:20.470Z,101815.34
2022-11-29T04:58:58.138Z,101812.81
2022-11-29T05:01:36.081Z,101811.88
2022-11-29T05:04:14.837Z,101816.97
2022-11-29T05:07:18.595Z,101817.81
2022-11-29T05:09:58.779Z,101827.38
2022-11-29T05:12:53.401Z,101822.13
2022-11-29T05:15:53.554Z,101836.00
2022-11-29T05:18:44.912Z,101839.56
2022-11-29T05:21:18.391Z,101843.97
2022-11-29T05:24:23.973Z,101843.03
2022-11-29T05:27:15.785Z,101846.50
2022-11-29T05:30:04.959Z,101850.22
2022-11-29T05:32:56.915Z,101849.31
2022-11-29T05:35:44.735Z,101840.41
2022-11-29T05:38:39.441Z,101850.06
2022-11-29T05:41:30.568Z,101859.72
2022-11-29T05:44:21.054Z,101864.88
2022-11-29T05:46:56.553Z,101869.41
2022-11-29T05:49:45.715Z,101860.56
2022-11-29T05:52:20.229Z,101871.25
2022-11-29T05:55:16.887Z,101876.88
2022-11-29T05:57:55.114Z,101880.34
2022-11-29T06:00:22.209Z,101877.03
2022-11-29T06:03:25.339Z,101883.03
2022-11-29T06:06:00.963Z,101882.97
2022-11-29T06:08:55.445Z,101892.63
2022-11-29T06:11:27.869Z,101891.13
2022-11-29T06:14:09.084Z,101898.03
2022-11-29T06:17:18.520Z,101889.22
2022-11-29T06:20:15.100Z,101887.53
2022-11-29T06:23:12.284Z,101893.63
2022-11-29T06:26:07.204Z,101898.25
2022-11-29T06:29:07.690Z,101897.22
2022-11-29T06:31:44.394Z,101907.59
2022-11-29T06:34:30.965Z,101906.50
2022-11-29T06:37:08.335Z,101912.75
2022-11-29T06:39:34.955Z,101917.19
2022-11-29T06:42:01.296Z,101913.63
2022-11-29T06:44:27.961Z,101917.00
2022-11-29T06:47:35.908Z,101923.19
2022-11-29T06:50:39.328Z,101925.81
2022-11-29T06:53:20.570Z,101933.72
2022-11-29T06:56:07.894Z,101939.72
2022-11-29T06:58:57.824Z,101941.38
2022-11-29T07:01:38.487Z,101942.25
2022-11-29T07:04:32.375Z,101950.13
2022-11-29T07:06:59.148Z,101948.31
2022-11-29T07:09:33.360Z,101953.78
2022-11-29T07:12:00.007Z,101951.16
2022-11-29T07:14:26.691Z,101959.19
2022-11-29T07:17:19.236Z,101959.19
2022-11-29T07:20:00.320Z,101967.84
2022-11-29T07:22:50.809Z,101969.53
2022-11-29T07:25:17.069Z,101980.78
2022-11-29T07:27:53.065Z,101983.25
2022-11-29T07:30:22.906Z,101986.78
2022-11-29T07:33:05.440Z,101983.41
2022-11-29T07:36:00.952Z,101985.28
2022-11-29T07:38:39.387Z,101988.66
2022-11-29T07:41:38.552Z,101994.09
2022-11-29T07:44:23.529Z,102002.03
2022-11-29T07:46:49.958Z,102002.97
2022-11-29T07:49:16.434Z,102004.59
2022-11-29T07:51:43.200Z,102008.81
2022-11-29T07:54:11.125Z,102011.69
2022-11-29T07:56:37.456Z,102010.84
2022-11-29T07:59:03.947Z,102016.94
2022-11-29T08:01:31.226Z,102027.44
2022-11-29T08:03:57.636Z,102018.81
2022-11-29T08:06:27.125Z,102021.69
2022-11-29T08:08:53.462Z,102020.84
2022-11-29T08:11:19.868Z,102031.34
2022-11-29T08:13:46.258Z,102031.34
2022-11-29T08:16:18.936Z,102037.72
2022-11-29T08:18:45.328Z,102035.16
2022-11-29T08:21:11.778Z,102035.25
2022-11-29T08:23:38.199Z,102033.75
2022-11-29T08:26:04.662Z,102042.53
2022-11-29T08:28:31.058Z,102037.28
2022-11-29T08:31:05.081Z,102042.38
2022-11-29T08:33:31.843Z,102044.66
2022-11-29T08:36:05.189Z,102036.59
2022-11-29T08:38:31.520Z,102040.00
2022-11-29T08:41:05.821Z,102036.25
2022-11-29T08:43:32.761Z,102048.47
2022-11-29T08:45:59.521Z,102041.50
2022-11-29T08:48:26.542Z,102046.09
2022-11-29T08:50:54.849Z,102044.13
2022-11-29T08:53:40.034Z,102046.78
2022-11-29T08:56:31.804Z,102054.66
2022-11-29T08:58:53.550Z,102055.44
2022-11-29T09:01:20.354Z,102057.78
2022-11-29T09:03:59.360Z,102065.56
2022-11-29T09:06:49.122Z,102066.34
2022-11-29T09:09:16.091Z,102061.84
2022-11-29T09:11:46.893Z,102059.22
2022-11-29T09:14:17.618Z,102071.16
2022-11-29T09:16:43.997Z,102066.56
2022-11-29T09:19:13.167Z,102074.88
2022-11-29T09:21:39.490Z,102068.84
2022-11-29T09:24:06.657Z,102070.47
2022-11-29T09:26:35.774Z,102071.13
2022-11-29T09:29:04.584Z,102078.66
2022-11-29T09:31:32.331Z,102077.38
2022-11-29T09:33:58.959Z,102084.16
2022-11-29T09:36:29.255Z,102087.38
2022-11-29T09:38:56.768Z,102090.94
2022-11-29T09:41:51.882Z,102087.19
2022-11-29T09:44:52.164Z,102100.16
2022-11-29T09:47:39.901Z,102101.66
2022-11-29T09:50:21.558Z,102102.44
2022-11-29T09:53:26.043Z,102112.47
2022-11-29T09:56:40.641Z,102116.34
2022-11-29T09:59:23.295Z,102109.19
2022-11-29T10:02:20.848Z,102117.94
2022-11-29T10:04:56.578Z,102123.63
2022-11-29T10:07:40.726Z,102120.59
2022-11-29T10:10:12.318Z,102120.41
2022-11-29T10:13:07.119Z,102128.47
2022-11-29T10:15:40.253Z,102133.19
2022-11-29T10:18:23.303Z,102133.59
2022-11-29T10:20:52.343Z,102128.34
2022-11-29T10:23:41.776Z,102126.50
2022-11-29T10:26:10.476Z,102121.03
2022-11-29T10:28:37.592Z,102113.94
2022-11-29T10:31:23.214Z,102119.97
2022-11-29T10:33:50.113Z,102112.66
2022-11-29T10:36:28.066Z,102123.00
2022-11-29T10:39:02.559Z,102123.94
2022-11-29T10:41:29.123Z,102119.53
2022-11-29T10:43:58.802Z,102118.50
2022-11-29T10:46:30.119Z,102121.16
2022-11-29T10:48:59.356Z,102117.72
2022-11-29T10:51:25.898Z,102117.56
2022-11-29T10:53:54.633Z,102128.44
2022-11-29T10:56:29.568Z,102121.31
2022-11-29T10:59:05.199Z,102122.16
2022-11-29T11:01:36.987Z,102121.50
2022-11-29T11:04:07.283Z,102117.34
2022-11-29T11:06:44.389Z,102119.03
2022-11-29T11:09:24.797Z,102119.88
2022-11-29T11:11:53.924Z,102120.72
2022-11-29T11:14:37.401Z,102121.16
2022-11-29T11:17:15.789Z,102112.09
2022-11-29T11:19:42.520Z,102113.69
2022-11-29T11:22:21.147Z,102116.22
2022-11-29T11:24:57.212Z,102116.88
2022-11-29T11:27:32.992Z,102111.25
2022-11-29T11:30:00.459Z,102120.06
2022-11-29T11:32:26.863Z,102117.75
2022-11-29T11:34:55.833Z,102122.06
2022-11-29T11:37:28.065Z,102124.50
2022-11-29T11:40:00.149Z,102125.84
2022-11-29T11:42:38.154Z,102124.75
2022-11-29T11:45:10.643Z,102120.91
2022-11-29T11:47:43.634Z,102121.84
2022-11-29T11:50:50.164Z,102130.78
2022-11-29T11:53:37.885Z,102128.56
2022-11-29T11:56:06.418Z,102124.66
2022-11-29T11:58:54.521Z,102125.34
2022-11-29T12:01:37.232Z,102136.03
2022-11-29T12:04:17.735Z,102136.50
2022-11-29T12:06:53.915Z,102137.19
2022-11-29T12:09:52.805Z,102141.28
2022-11-29T12:12:24.873Z,102146.25
2022-11-29T12:15:02.222Z,102144.09
2022-11-29T12:17:34.205Z,102140.38
2022-11-29T12:20:21.904Z,102143.03
2022-11-29T12:23:15.294Z,102146.41
2022-11-29T12:26:19.305Z,102155.59
2022-11-29T12:28:59.682Z,102150.59
2022-11-29T12:32:20.431Z,102160.94
2022-11-29T12:34:58.815Z,102166.31
2022-11-29T12:37:55.091Z,102160.94
2022-11-29T12:40:43.034Z,102164.03
2022-11-29T12:43:39.520Z,102170.03
2022-11-29T12:46:19.291Z,102168.94
2022-11-29T12:49:01.275Z,102169.13
2022-11-29T12:51:36.723Z,102187.03
2022-11-29T12:54:15.735Z,102182.41
2022-11-29T12:56:58.097Z,102181.91
2022-11-29T13:00:01.894Z,102190.41
2022-11-29T13:02:47.306Z,102181.16
2022-11-29T13:05:29.752Z,102187.56
2022-11-29T13:08:05.278Z,102190.03
2022-11-29T13:10:34.702Z,102181.38
2022-11-29T13:13:16.254Z,102185.69
2022-11-29T13:15:52.299Z,102184.00
2022-11-29T13:18:33.796Z,102190.41
2022-11-29T13:21:05.871Z,102188.44
2022-11-29T13:24:08.407Z,102192.94
2022-11-29T13:26:36.543Z,102185.81
2022-11-29T13:29:04.010Z,102202.47
2022-11-29T13:31:31.173Z,102206.00
2022-11-29T13:34:24.649Z,102190.03
2022-11-29T13:37:00.046Z,102195.66
2022-11-29T13:39:50.649Z,102199.22
2022-11-29T13:42:29.061Z,102200.81
2022-11-29T13:45:25.071Z,102196.59
2022-11-29T13:47:54.343Z,102200.19
2022-11-29T13:50:37.326Z,102209.88
2022-11-29T13:53:12.608Z,102205.84
2022-11-29T13:55:59.827Z,102207.91
2022-11-29T13:58:28.972Z,102209.59
2022-11-29T14:01:06.527Z,102210.75
2022-11-29T14:03:38.641Z,102208.94
2022-11-29T14:06:10.322Z,102204.69
2022-11-29T14:09:38.054Z,102209.97
2022-11-29T14:11:43.136Z,102199.81
2022-11-29T14:14:15.260Z,102196.63
2022-11-29T14:16:50.252Z,102198.69
2022-11-29T14:19:26.748Z,102203.41
2022-11-29T14:21:56.478Z,102188.75
2022-11-29T14:24:39.580Z,102200.38
2022-11-29T14:27:05.854Z,102205.28
2022-11-29T14:29:47.780Z,102199.69
2022-11-29T14:32:44.402Z,102199.06
2022-11-29T14:35:12.364Z,102202.13
2022-11-29T14:37:55.305Z,102207.38
2022-11-29T14:40:27.467Z,102207.97
2022-11-29T14:42:53.928Z,102217.44
2022-11-29T14:45:32.118Z,102211.09
2022-11-29T14:48:00.567Z,102217.81
2022-11-29T14:50:33.396Z,102220.78
2022-11-29T14:53:00.503Z,102222.81
2022-11-29T14:55:26.741Z,102221.28
2022-11-29T14:58:03.829Z,102207.75
2022-11-29T15:00:49.081Z,102217.75
2022-11-29T15:03:31.838Z,102212.16
2022-11-29T15:06:11.369Z,102219.53
2022-11-29T15:09:15.285Z,102219.78
2022-11-29T15:12:14.347Z,102216.56
2022-11-29T15:14:47.106Z,102220.44
2022-11-29T15:17:31.950Z,102218.31
2022-11-29T15:20:20.265Z,102227.84
2022-11-29T15:22:52.830Z,102227.69
2022-11-29T15:25:24.875Z,102235.25
2022-11-29T15:27:52.722Z,102237.59
2022-11-29T15:30:40.512Z,102239.59
2022-11-29T15:33:22.783Z,102236.38
2022-11-29T15:35:51.556Z,102233.25
2022-11-29T15:38:20.289Z,102241.44
2022-11-29T15:40:53.029Z,102242.38
2022-11-29T15:43:30.282Z,102247.31
2022-11-29T15:45:57.897Z,102234.03
2022-11-29T15:48:29.319Z,102241.34
2022-11-29T15:51:28.249Z,102252.69
2022-11-29T15:54:13.429Z,102251.69
2022-11-29T15:56:53.306Z,102254.06
2022-11-29T15:59:42.362Z,102257.31
2022-11-29T16:02:33.384Z,102262.47
2022-11-29T16:05:24.848Z,102264.03
2022-11-29T16:07:56.237Z,102259.53
2022-11-29T16:10:52.749Z,102260.38
2022-11-29T16:13:25.247Z,102262.25
2022-11-29T16:16:06.671Z,102262.25
2022-11-29T16:18:33.554Z,102269.28
2022-11-29T16:21:05.631Z,102270.13
2022-11-29T16:23:42.136Z,102268.19
2022-11-29T16:26:43.853Z,102265.31
2022-11-29T16:29:38.066Z,102272.03
2022-11-29T16:32:23.285Z,102264.06
2022-11-29T16:34:49.763Z,102266.59
2022-11-29T16:37:20.515Z,102272.69
2022-11-29T16:39:49.374Z,102274.47
2022-11-29T16:42:26.173Z,102274.41
2022-11-29T16:45:27.090Z,102277.03
2022-11-29T16:47:59.380Z,102278.75
2022-11-29T16:50:28.205Z,102278.75
2022-11-29T16:52:56.795Z,102278.56
2022-11-29T16:55:23.906Z,102278.56
2022-11-29T16:57:51.968Z,102287.38
2022-11-29T17:00:22.398Z,102283.81
2022-11-29T17:02:49.121Z,102275.94
2022-11-29T17:05:15.453Z,102279.41
2022-11-29T17:07:42.130Z,102278.56
2022-11-29T17:10:13.542Z,102283.06
2022-11-29T17:12:44.769Z,102276.16
2022-11-29T17:15:14.247Z,102282.63
2022-11-29T17:17:43.174Z,102288.00
2022-11-29T17:20:12.169Z,102294.97
2022-11-29T17:22:38.747Z,102288.84
2022-11-29T17:25:05.537Z,102293.19
2022-11-29T17:27:31.921Z,102290.56
2022-11-29T17:29:58.288Z,102285.38
2022-11-29T17:32:26.882Z,102290.50
2022-11-29T17:34:53.725Z,102300.06
2022-11-29T17:37:20.145Z,102295.56
2022-11-29T17:39:48.900Z,102305.25
2022-11-29T17:42:15.261Z,102302.59
2022-11-29T17:44:41.877Z,102299.91
2022-11-29T17:47:08.309Z,102296.34
2022-11-29T17:49:34.734Z,102308.56
2022-11-29T17:52:01.049Z,102304.16
2022-11-29T17:54:27.553Z,102307.63
2022-11-29T17:56:53.873Z,102305.84
2022-11-29T17:59:20.461Z,102304.06
2022-11-29T18:01:47.139Z,102302.28
2022-11-29T18:04:13.764Z,102306.69
2022-11-29T18:06:40.416Z,102310.09
2022-11-29T18:09:09.213Z,102315.25
2022-11-29T18:11:47.436Z,102322.28
2022-11-29T18:14:17.528Z,102314.25
2022-11-29T18:16:45.396Z,102316.88
2022-11-29T18:19:14.642Z,102326.47
2022-11-29T18:21:41.096Z,102329.94
2022-11-29T18:24:08.998Z,102330.78
2022-11-29T18:26:36.520Z,102335.00
2022-11-29T18:29:03.321Z,102332.31
2022-11-29T18:31:34.838Z,102334.00
2022-11-29T18:34:03.291Z,102338.44
2022-11-29T18:36:32.489Z,102337.59
2022-11-29T18:39:10.293Z,102333.16
2022-11-29T18:41:37.784Z,102328.75
2022-11-29T18:44:07.404Z,102337.59
2022-11-29T18:46:36.653Z,102348.09
2022-11-29T18:49:05.473Z,102339.41
2022-11-29T18:51:32.554Z,102338.50
2022-11-29T18:53:59.525Z,102340.97
2022-11-29T18:56:29.329Z,102351.47
2022-11-29T18:58:58.647Z,102346.22
2022-11-29T19:01:27.475Z,102346.22
2022-11-29T19:03:57.217Z,102352.31
2022-11-29T19:06:26.049Z,102347.06
2022-11-29T19:08:53.324Z,102353.16
2022-11-29T19:11:21.700Z,102359.25
2022-11-29T19:13:52.247Z,102355.72
2022-11-29T19:16:19.412Z,102351.28
2022-11-29T19:18:45.992Z,102350.44
2022-11-29T19:21:13.201Z,102355.56
2022-11-29T19:23:40.557Z,102354.63
2022-11-29T19:26:09.251Z,102358.84
2022-11-29T19:28:37.560Z,102355.38
2022-11-29T19:31:07.124Z,102354.53
2022-11-29T19:33:38.017Z,102355.34
2022-11-29T19:36:10.410Z,102357.03
2022-11-29T19:38:37.900Z,102361.34
2022-11-29T19:41:11.470Z,102356.09
2022-11-29T19:43:38.537Z,102363.03
2022-11-29T19:46:25.228Z,102368.28
2022-11-29T19:48:52.982Z,102363.03
2022-11-29T19:51:20.149Z,102359.47
2022-11-29T19:53:47.090Z,102362.84
2022-11-29T19:56:15.771Z,102361.16
2022-11-29T19:58:42.976Z,102368.13
2022-11-29T20:01:22.711Z,102368.13
2022-11-29T20:03:50.044Z,102369.84
2022-11-29T20:06:17.143Z,102370.69
2022-11-29T20:08:43.995Z,102374.91
2022-11-29T20:11:13.224Z,102375.84
2022-11-29T20:13:41.113Z,102376.78
2022-11-29T20:16:12.991Z,102379.41
2022-11-29T20:18:47.133Z,102381.13
2022-11-29T20:21:20.470Z,102384.59
2022-11-29T20:23:46.821Z,102381.03
2022-11-29T20:26:19.315Z,102380.19
2022-11-29T20:28:47.381Z,102381.03
2022-11-29T20:31:17.142Z,102387.13
2022-11-29T20:33:45.237Z,102380.09
2022-11-29T20:36:17.551Z,102389.75
2022-11-29T20:38:54.439Z,102387.97
2022-11-29T20:41:53.087Z,102383.56
2022-11-29T20:44:40.214Z,102386.13
2022-11-29T20:47:40.198Z,102390.47
2022-11-29T20:50:07.562Z,102390.53
2022-11-29T20:53:14.973Z,102393.09
2022-11-29T20:55:47.473Z,102397.31
2022-11-29T20:58:14.610Z,102401.72
2022-11-29T21:00:42.167Z,102401.81
2022-11-29T21:03:08.590Z,102406.97
2022-11-29T21:05:37.732Z,102410.63
2022-11-29T21:08:04.248Z,102407.06
2022-11-29T21:10:30.718Z,102394.03
2022-11-29T21:12:57.484Z,102404.44
2022-11-29T21:15:24.112Z,102407.06
2022-11-29T21:17:50.750Z,102410.63
2022-11-29T21:20:27.468Z,102408.00
2022-11-29T21:22:58.791Z,102417.69
2022-11-29T21:25:37.358Z,102413.25
2022-11-29T21:28:08.469Z,102421.16
2022-11-29T21:30:35.055Z,102421.16
2022-11-29T21:33:01.733Z,102425.47
2022-11-29T21:35:28.178Z,102424.53
2022-11-29T21:37:58.983Z,102424.63
2022-11-29T21:40:25.685Z,102431.66
2022-11-29T21:42:52.081Z,102430.72
2022-11-29T21:45:18.440Z,102431.56
2022-11-29T21:47:45.378Z,102433.28
2022-11-29T21:50:12.832Z,102431.50
2022-11-29T21:52:40.106Z,102430.56
2022-11-29T21:55:06.777Z,102437.50
2022-11-29T21:57:33.154Z,102441.84
2022-11-29T21:59:59.541Z,102439.22
2022-11-29T22:02:25.957Z,102434.88
2022-11-29T22:04:52.377Z,102439.38
2022-11-29T22:07:18.788Z,102434.13
2022-11-29T22:09:45.216Z,102440.31
2022-11-29T22:12:32.633Z,102443.69
2022-11-29T22:14:58.012Z,102441.06
2022-11-29T22:17:24.334Z,102447.25
2022-11-29T22:19:50.631Z,102446.31
2022-11-29T22:22:17.215Z,102439.38
2022-11-29T22:24:43.747Z,102449.88
2022-11-29T22:27:10.252Z,102437.69
2022-11-29T22:29:36.625Z,102442.00
2022-11-29T22:32:03.057Z,102444.50
2022-11-29T22:34:29.426Z,102449.75
2022-11-29T22:36:55.847Z,102448.81
2022-11-29T22:39:22.501Z,102449.75
2022-11-29T22:41:53.893Z,102454.16
2022-11-29T22:44:21.389Z,102451.56
2022-11-29T22:46:47.784Z,102457.00
2022-11-29T22:49:14.224Z,102450.06
2022-11-29T22:51:40.653Z,102459.78
2022-11-29T22:54:09.139Z,102458.09
2022-11-29T22:56:38.089Z,102461.66
2022-11-29T22:59:04.672Z,102467.84
2022-11-29T23:01:33.015Z,102458.34
2022-11-29T23:04:03.868Z,102457.47
2022-11-29T23:06:32.853Z,102463.59
2022-11-29T23:09:07.312Z,102461.97
2022-11-29T23:11:33.733Z,102469.84
2022-11-29T23:14:00.122Z,102468.16
2022-11-29T23:16:29.880Z,102471.53
2022-11-29T23:18:58.231Z,102471.53
2022-11-29T23:21:33.071Z,102469.84
2022-11-29T23:24:00.952Z,102474.16
2022-11-29T23:26:29.834Z,102464.59
2022-11-29T23:28:56.700Z,102466.44
2022-11-29T23:31:24.058Z,102473.56
2022-11-29T23:33:50.529Z,102472.78
2022-11-29T23:36:17.589Z,102463.19
2022-11-29T23:38:43.962Z,102470.31
2022-11-29T23:41:11.597Z,102468.63
2022-11-29T23:43:40.334Z,102474.78
2022-11-29T23:46:13.453Z,102482.66
2022-11-29T23:48:40.138Z,102473.25
2022-11-29T23:51:06.680Z,102482.06
2022-11-29T23:53:33.129Z,102481.13
2022-11-29T23:56:05.343Z,102470.75
2022-11-29T23:58:32.779Z,102475.13
